createdAt,value
2018-06-17T00:00:42.200Z,11.07
2018-06-17T00:03:15.268Z,10.20
2018-06-17T00:05:48.344Z,11.27
2018-06-17T00:08:21.440Z,10.83
2018-06-17T00:10:54.498Z,11.97
2018-06-17T00:13:27.611Z,11.17
2018-06-17T00:16:00.714Z,11.43
2018-06-17T00:18:33.803Z,11.67
2018-06-17T00:21:06.895Z,10.53
2018-06-17T00:23:39.988Z,10.73
2018-06-17T00:26:13.046Z,11.10
2018-06-17T00:28:46.091Z,10.87
2018-06-17T00:31:19.140Z,10.90
2018-06-17T00:33:52.254Z,10.50
2018-06-17T00:36:25.416Z,10.97
2018-06-17T00:38:58.521Z,10.70
2018-06-17T00:41:31.554Z,11.13
2018-06-17T00:44:04.587Z,11.20
2018-06-17T00:46:37.676Z,10.67
2018-06-17T00:49:10.752Z,11.27
2018-06-17T00:51:43.819Z,10.83
2018-06-17T00:54:16.918Z,11.17
2018-06-17T00:57:01.417Z,10.00
2018-06-17T00:59:34.499Z,10.47
2018-06-17T01:02:07.606Z,10.97
2018-06-17T01:04:40.657Z,11.03
2018-06-17T01:07:13.779Z,10.67
2018-06-17T01:09:46.859Z,11.40
2018-06-17T01:12:19.928Z,11.17
2018-06-17T01:14:52.991Z,11.13
2018-06-17T01:17:26.171Z,10.70
2018-06-17T01:19:59.251Z,10.67
2018-06-17T01:22:32.294Z,10.47
2018-06-17T01:25:05.405Z,11.00
2018-06-17T01:27:38.439Z,10.80
2018-06-17T01:30:11.495Z,11.07
2018-06-17T01:32:44.547Z,11.67
2018-06-17T01:35:17.612Z,11.80
2018-06-17T01:37:50.751Z,10.70
2018-06-17T01:40:23.846Z,10.07
2018-06-17T01:42:56.898Z,11.03
2018-06-17T01:45:30.023Z,9.77
2018-06-17T01:48:03.147Z,11.40
2018-06-17T01:50:36.338Z,11.33
2018-06-17T01:53:09.383Z,10.90
2018-06-17T01:55:42.478Z,11.20
2018-06-17T01:58:15.545Z,11.07
2018-06-17T02:00:48.627Z,11.27
2018-06-17T02:03:27.069Z,11.60
2018-06-17T02:06:05.526Z,11.23
2018-06-17T02:08:44.028Z,11.10
2018-06-17T02:11:22.473Z,11.13
2018-06-17T02:13:59.762Z,11.23
2018-06-17T02:16:32.822Z,11.37
2018-06-17T02:19:05.870Z,11.60
2018-06-17T02:21:39.088Z,11.03
2018-06-17T02:24:12.113Z,11.60
2018-06-17T02:26:45.141Z,11.60
2018-06-17T02:29:18.294Z,11.53
2018-06-17T02:31:51.339Z,12.17
2018-06-17T02:34:24.415Z,11.23
2018-06-17T02:36:57.562Z,11.60
2018-06-17T02:39:30.598Z,11.50
2018-06-17T02:42:03.774Z,11.20
2018-06-17T02:44:37.016Z,12.77
2018-06-17T02:47:15.582Z,12.30
2018-06-17T02:49:48.869Z,12.73
2018-06-17T02:52:27.333Z,12.70
2018-06-17T02:55:00.383Z,13.10
2018-06-17T02:57:33.229Z,11.57
2018-06-17T03:00:06.249Z,10.97
2018-06-17T03:02:39.295Z,11.27
2018-06-17T03:05:12.153Z,12.13
2018-06-17T03:07:45.197Z,11.23
2018-06-17T03:10:18.281Z,11.90
2018-06-17T03:12:51.372Z,11.63
2018-06-17T03:15:24.442Z,11.40
2018-06-17T03:17:57.480Z,11.67
2018-06-17T03:20:30.532Z,11.70
2018-06-17T03:23:03.653Z,11.93
2018-06-17T03:25:42.239Z,11.63
2018-06-17T03:28:20.904Z,12.33
2018-06-17T03:30:59.484Z,12.30
2018-06-17T03:33:37.990Z,12.00
2018-06-17T03:36:12.072Z,12.77
2018-06-17T03:38:45.151Z,12.47
2018-06-17T03:41:18.215Z,12.23
2018-06-17T03:43:51.342Z,12.90
2018-06-17T03:46:24.383Z,13.30
2018-06-17T03:48:57.477Z,13.63
2018-06-17T03:51:30.697Z,12.40
2018-06-17T03:54:03.790Z,12.23
2018-06-17T03:56:36.843Z,13.30
2018-06-17T03:59:09.897Z,12.77
2018-06-17T04:01:42.944Z,12.63
2018-06-17T04:04:16.032Z,12.97
2018-06-17T04:06:49.191Z,13.17
2018-06-17T04:09:22.258Z,12.83
2018-06-17T04:11:55.314Z,12.20
2018-06-17T04:14:28.382Z,13.83
2018-06-17T04:17:05.785Z,13.40
2018-06-17T04:19:38.911Z,13.87
2018-06-17T04:22:12.218Z,12.87
2018-06-17T04:24:45.261Z,13.73
2018-06-17T04:27:18.314Z,13.20
2018-06-17T04:29:51.414Z,13.73
2018-06-17T04:32:24.479Z,13.50
2018-06-17T04:34:57.556Z,14.20
2018-06-17T04:37:30.783Z,12.57
2018-06-17T04:40:03.911Z,13.67
2018-06-17T04:42:36.944Z,12.97
2018-06-17T04:45:10.043Z,11.80
2018-06-17T04:47:43.076Z,12.30
2018-06-17T04:50:16.186Z,12.30
2018-06-17T04:52:49.219Z,12.40
2018-06-17T04:55:22.290Z,13.17
2018-06-17T04:57:55.329Z,12.57
2018-06-17T05:00:28.454Z,13.63
2018-06-17T05:03:02.402Z,13.17
2018-06-17T05:05:35.526Z,12.27
2018-06-17T05:08:08.614Z,13.43
2018-06-17T05:10:41.683Z,14.13
2018-06-17T05:13:14.767Z,14.30
2018-06-17T05:15:47.863Z,13.13
2018-06-17T05:18:20.907Z,13.03
2018-06-17T05:20:54.024Z,13.27
2018-06-17T05:23:27.109Z,14.13
2018-06-17T05:26:00.173Z,13.87
2018-06-17T05:28:33.237Z,13.97
2018-06-17T05:31:06.385Z,14.20
2018-06-17T05:33:39.484Z,13.97
2018-06-17T05:36:12.508Z,12.10
2018-06-17T05:38:45.570Z,10.97
2018-06-17T05:41:18.670Z,11.00
2018-06-17T05:43:51.810Z,11.07
2018-06-17T05:46:24.883Z,10.63
2018-06-17T05:48:57.935Z,10.53
2018-06-17T05:51:31.061Z,11.00
2018-06-17T05:54:04.147Z,10.23
2018-06-17T05:56:37.253Z,9.93
2018-06-17T05:59:10.281Z,10.17
2018-06-17T06:01:43.352Z,10.60
2018-06-17T06:04:16.445Z,10.13
2018-06-17T06:06:49.516Z,9.57
2018-06-17T06:09:22.602Z,11.60
2018-06-17T06:11:56.197Z,10.10
2018-06-17T06:14:29.311Z,10.13
2018-06-17T06:17:03.050Z,12.10
2018-06-17T06:19:36.224Z,10.30
2018-06-17T06:22:09.307Z,10.10
2018-06-17T06:24:42.374Z,10.13
2018-06-17T06:27:15.438Z,10.73
2018-06-17T06:29:48.578Z,9.70
2018-06-17T06:32:21.693Z,9.53
2018-06-17T06:34:54.723Z,10.13
2018-06-17T06:37:27.769Z,9.83
2018-06-17T06:40:00.867Z,12.87
2018-06-17T06:42:33.907Z,10.23
2018-06-17T06:45:06.984Z,9.63
2018-06-17T06:47:40.038Z,10.20
2018-06-17T06:50:13.211Z,12.37
2018-06-17T06:52:46.282Z,10.03
2018-06-17T06:55:19.309Z,9.50
2018-06-17T06:57:52.409Z,10.30
2018-06-17T07:00:25.469Z,8.97
2018-06-17T07:03:09.971Z,9.03
2018-06-17T07:05:54.451Z,9.50
2018-06-17T07:08:39.032Z,9.97
2018-06-17T07:11:12.121Z,9.50
2018-06-17T07:13:45.201Z,10.00
2018-06-17T07:16:29.546Z,8.67
2018-06-17T07:19:02.674Z,9.37
2018-06-17T07:21:35.505Z,8.83
2018-06-17T07:24:08.635Z,8.80
2018-06-17T07:26:57.529Z,8.47
2018-06-17T07:29:41.878Z,9.33
2018-06-17T07:32:14.981Z,8.13
2018-06-17T07:34:47.988Z,7.83
2018-06-17T07:37:21.034Z,7.27
2018-06-17T07:40:16.795Z,7.87
2018-06-17T07:42:49.959Z,8.37
2018-06-17T07:45:23.057Z,8.00
2018-06-17T07:47:56.157Z,6.97
2018-06-17T07:50:40.597Z,6.83
2018-06-17T07:53:17.133Z,7.63
2018-06-17T07:55:50.190Z,7.27
2018-06-17T07:58:23.236Z,7.07
2018-06-17T08:00:56.472Z,7.20
2018-06-17T08:03:29.572Z,7.73
2018-06-17T08:06:02.627Z,7.80
2018-06-17T08:08:35.666Z,8.47
2018-06-17T08:11:08.731Z,8.23
2018-06-17T08:13:41.785Z,7.90
2018-06-17T08:16:14.858Z,7.30
2018-06-17T08:18:47.889Z,7.30
2018-06-17T08:21:20.997Z,8.10
2018-06-17T08:23:54.052Z,6.67
2018-06-17T08:26:27.127Z,7.33
2018-06-17T08:29:00.162Z,6.67
2018-06-17T08:31:33.437Z,6.73
2018-06-17T08:34:06.489Z,7.23
2018-06-17T08:36:39.929Z,7.50
2018-06-17T08:39:14.442Z,6.30
2018-06-17T08:41:47.518Z,6.73
2018-06-17T08:44:20.800Z,5.67
2018-06-17T08:46:53.872Z,5.90
2018-06-17T08:49:26.888Z,5.77
2018-06-17T08:52:00.041Z,5.77
2018-06-17T08:54:33.050Z,4.83
2018-06-17T08:57:06.095Z,4.40
2018-06-17T08:59:39.229Z,4.97
2018-06-17T09:02:13.497Z,5.17
2018-06-17T09:04:46.544Z,4.90
2018-06-17T09:07:19.620Z,4.97
2018-06-17T09:09:52.703Z,4.70
2018-06-17T09:12:25.860Z,5.30
2018-06-17T09:14:58.846Z,5.60
2018-06-17T09:17:32.106Z,4.73
2018-06-17T09:20:05.166Z,4.87
2018-06-17T09:22:38.245Z,4.30
2018-06-17T09:25:11.308Z,3.83
2018-06-17T09:27:44.436Z,4.03
2018-06-17T09:30:17.801Z,3.90
2018-06-17T09:32:50.899Z,4.70
2018-06-17T09:35:23.963Z,4.63
2018-06-17T09:37:57.097Z,4.90
2018-06-17T09:40:30.191Z,4.50
2018-06-17T09:43:03.072Z,3.87
2018-06-17T09:45:36.148Z,4.17
2018-06-17T09:48:09.273Z,4.03
2018-06-17T09:50:42.333Z,3.83
2018-06-17T09:53:15.370Z,4.60
2018-06-17T09:55:48.407Z,4.30
2018-06-17T09:58:21.467Z,4.90
2018-06-17T10:00:54.662Z,4.50
2018-06-17T10:03:27.714Z,5.07
2018-06-17T10:06:00.829Z,4.57
2018-06-17T10:08:33.874Z,3.90
2018-06-17T10:11:07.941Z,3.80
2018-06-17T10:13:43.106Z,4.43
2018-06-17T10:16:16.845Z,3.97
2018-06-17T10:18:49.881Z,4.10
2018-06-17T10:21:22.924Z,3.90
2018-06-17T10:23:56.170Z,3.83
2018-06-17T10:26:29.406Z,4.23
2018-06-17T10:29:02.430Z,3.97
2018-06-17T10:31:35.444Z,3.80
2018-06-17T10:34:08.510Z,3.77
2018-06-17T10:36:41.584Z,4.20
2018-06-17T10:39:14.602Z,4.03
2018-06-17T10:41:47.638Z,3.67
2018-06-17T10:44:20.747Z,3.80
2018-06-17T10:46:53.742Z,4.10
2018-06-17T10:49:26.826Z,3.23
2018-06-17T10:52:00.048Z,3.63
2018-06-17T10:54:33.155Z,3.40
2018-06-17T10:57:06.167Z,3.97
2018-06-17T10:59:39.209Z,3.90
2018-06-17T11:02:12.233Z,3.33
2018-06-17T11:04:45.309Z,3.90
2018-06-17T11:07:18.319Z,4.00
2018-06-17T11:09:51.373Z,3.50
2018-06-17T11:12:24.431Z,3.73
2018-06-17T11:14:57.638Z,3.60
2018-06-17T11:17:30.702Z,3.90
2018-06-17T11:20:03.774Z,3.67
2018-06-17T11:22:36.774Z,4.03
2018-06-17T11:25:09.802Z,4.10
2018-06-17T11:27:42.891Z,4.60
2018-06-17T11:30:15.938Z,4.00
2018-06-17T11:32:48.982Z,3.97
2018-06-17T11:35:22.065Z,4.50
2018-06-17T11:37:55.063Z,4.37
2018-06-17T11:40:28.101Z,3.93
2018-06-17T11:43:01.137Z,3.80
2018-06-17T11:45:34.210Z,3.80
2018-06-17T11:48:07.226Z,3.73
2018-06-17T11:50:40.271Z,3.50
2018-06-17T11:53:13.314Z,3.90
2018-06-17T11:55:46.441Z,3.97
2018-06-17T11:58:19.531Z,3.80
2018-06-17T12:00:52.566Z,3.83
2018-06-17T12:03:25.587Z,3.87
2018-06-17T12:05:58.666Z,3.90
2018-06-17T12:08:31.682Z,3.87
2018-06-17T12:11:04.771Z,4.00
2018-06-17T12:13:37.887Z,4.47
2018-06-17T12:16:10.931Z,3.33
2018-06-17T12:18:44.131Z,3.60
2018-06-17T12:21:17.204Z,3.87
2018-06-17T12:23:50.314Z,3.73
2018-06-17T12:26:23.470Z,3.70
2018-06-17T12:28:56.520Z,4.20
2018-06-17T12:31:29.548Z,4.10
2018-06-17T12:34:02.566Z,3.80
2018-06-17T12:36:35.643Z,3.73
2018-06-17T12:39:11.523Z,4.03
2018-06-17T12:41:44.561Z,4.20
2018-06-17T12:44:17.658Z,4.00
2018-06-17T12:46:50.685Z,3.60
2018-06-17T12:49:23.700Z,4.10
2018-06-17T12:51:56.784Z,3.93
2018-06-17T12:54:29.957Z,4.00
2018-06-17T12:57:03.027Z,3.97
2018-06-17T12:59:36.080Z,4.10
2018-06-17T13:02:09.154Z,3.90
2018-06-17T13:04:42.227Z,3.83
2018-06-17T13:07:15.354Z,4.23
2018-06-17T13:09:48.384Z,4.43
2018-06-17T13:12:21.542Z,4.17
2018-06-17T13:14:54.567Z,4.50
2018-06-17T13:17:27.610Z,4.37
2018-06-17T13:20:00.645Z,4.50
2018-06-17T13:22:34.186Z,4.27
2018-06-17T13:25:07.181Z,4.00
2018-06-17T13:27:40.205Z,4.40
2018-06-17T13:30:13.246Z,4.10
2018-06-17T13:32:46.329Z,4.33
2018-06-17T13:35:19.414Z,4.00
2018-06-17T13:37:52.685Z,4.20
2018-06-17T13:40:25.715Z,4.20
2018-06-17T13:43:04.974Z,4.57
2018-06-17T13:45:37.986Z,4.20
2018-06-17T13:48:11.038Z,4.27
2018-06-17T13:50:44.059Z,4.20
2018-06-17T13:53:16.940Z,4.07
2018-06-17T13:55:49.999Z,4.13
2018-06-17T13:58:23.061Z,4.07
2018-06-17T14:00:56.156Z,3.73
2018-06-17T14:03:29.230Z,4.03
2018-06-17T14:06:02.349Z,3.93
2018-06-17T14:08:35.467Z,3.90
2018-06-17T14:11:08.579Z,4.13
2018-06-17T14:13:41.642Z,3.77
2018-06-17T14:16:14.799Z,4.13
2018-06-17T14:18:47.892Z,3.60
2018-06-17T14:21:20.899Z,3.37
2018-06-17T14:23:53.910Z,3.60
2018-06-17T14:26:26.978Z,3.27
2018-06-17T14:29:00.162Z,3.40
2018-06-17T14:31:33.281Z,2.30
2018-06-17T14:34:06.520Z,2.30
2018-06-17T14:36:39.587Z,2.23
2018-06-17T14:39:13.407Z,1.87
2018-06-17T14:41:50.695Z,2.20
2018-06-17T14:44:29.134Z,1.70
2018-06-17T14:47:07.553Z,1.70
2018-06-17T14:49:46.068Z,1.43
2018-06-17T14:52:25.549Z,1.50
2018-06-17T14:54:59.177Z,1.60
2018-06-17T14:57:32.298Z,1.30
2018-06-17T15:00:05.423Z,1.30
2018-06-17T15:02:38.449Z,1.50
2018-06-17T15:05:11.470Z,1.60
2018-06-17T15:07:44.526Z,1.50
2018-06-17T15:10:17.578Z,1.43
2018-06-17T15:12:50.673Z,1.50
2018-06-17T15:15:23.692Z,1.20
2018-06-17T15:17:56.735Z,1.33
2018-06-17T15:20:29.810Z,1.13
2018-06-17T15:23:02.906Z,1.20
2018-06-17T15:25:35.987Z,1.57
2018-06-17T15:28:08.997Z,1.10
2018-06-17T15:30:42.038Z,1.30
2018-06-17T15:34:21.001Z,1.20
2018-06-17T15:36:59.543Z,1.23
2018-06-17T15:39:37.931Z,1.40
2018-06-17T15:42:10.987Z,1.17
2018-06-17T15:44:44.018Z,1.07
2018-06-17T15:47:17.064Z,1.10
2018-06-17T15:49:50.246Z,1.10
2018-06-17T15:52:23.289Z,1.20
2018-06-17T15:54:56.323Z,1.00
2018-06-17T15:57:29.479Z,1.30
2018-06-17T16:00:02.561Z,0.87
2018-06-17T16:02:35.601Z,1.27
2018-06-17T16:05:08.666Z,0.90
2018-06-17T16:07:41.716Z,1.13
2018-06-17T16:10:14.747Z,1.03
2018-06-17T16:12:53.306Z,1.10
2018-06-17T16:15:31.859Z,1.07
2018-06-17T16:18:10.493Z,1.00
2018-06-17T16:20:48.996Z,1.10
2018-06-17T16:23:23.048Z,0.80
2018-06-17T16:25:56.100Z,1.23
2018-06-17T16:28:29.179Z,1.07
2018-06-17T16:31:02.318Z,1.00
2018-06-17T16:33:35.338Z,1.20
2018-06-17T16:36:08.365Z,0.87
2018-06-17T16:38:41.463Z,1.00
2018-06-17T16:41:14.544Z,1.50
2018-06-17T16:43:47.663Z,1.23
2018-06-17T16:46:20.700Z,1.00
2018-06-17T16:48:53.824Z,0.90
2018-06-17T16:51:32.334Z,1.07
2018-06-17T16:54:11.179Z,1.30
2018-06-17T16:56:49.620Z,1.00
2018-06-17T16:59:28.207Z,1.10
2018-06-17T17:02:01.282Z,1.27
2018-06-17T17:04:34.306Z,1.10
2018-06-17T17:07:07.317Z,1.17
2018-06-17T17:09:40.390Z,1.30
2018-06-17T17:12:13.390Z,1.20
2018-06-17T17:14:46.437Z,1.10
2018-06-17T17:17:19.490Z,1.20
2018-06-17T17:19:52.531Z,1.13
2018-06-17T17:22:25.537Z,1.33
2018-06-17T17:24:58.601Z,1.20
2018-06-17T17:27:31.594Z,1.50
2018-06-17T17:30:04.778Z,1.40
2018-06-17T17:34:48.611Z,1.50
2018-06-17T17:37:27.184Z,1.53
2018-06-17T17:40:05.711Z,1.30
2018-06-17T17:42:38.790Z,1.93
2018-06-17T17:45:16.942Z,1.47
2018-06-17T17:47:50.108Z,1.40
2018-06-17T17:50:23.233Z,1.20
2018-06-17T17:52:56.348Z,1.60
2018-06-17T17:55:29.571Z,1.30
2018-06-17T17:58:03.237Z,1.50
2018-06-17T18:00:36.268Z,1.53
2018-06-17T18:03:09.329Z,1.30
2018-06-17T18:05:42.183Z,1.40
2018-06-17T18:08:15.288Z,1.33
2018-06-17T18:10:48.534Z,1.30
2018-06-17T18:13:21.709Z,1.60
2018-06-17T18:15:54.733Z,1.50
2018-06-17T18:18:27.761Z,1.40
2018-06-17T18:21:01.400Z,1.40
2018-06-17T18:23:34.559Z,1.30
2018-06-17T18:26:13.050Z,1.50
2018-06-17T18:28:51.614Z,1.43
2018-06-17T18:31:24.804Z,1.40
2018-06-17T18:34:03.410Z,1.13
2018-06-17T18:36:36.316Z,1.30
2018-06-17T18:39:09.158Z,1.70
2018-06-17T18:41:42.203Z,1.63
2018-06-17T18:44:15.410Z,1.30
2018-06-17T18:46:48.511Z,1.50
2018-06-17T18:49:21.602Z,1.33
2018-06-17T18:51:54.647Z,1.60
2018-06-17T18:54:27.742Z,1.60
2018-06-17T18:57:00.910Z,1.80
2018-06-17T18:59:33.982Z,1.73
2018-06-17T19:02:09.131Z,1.60
2018-06-17T19:04:42.274Z,1.50
2018-06-17T19:07:15.695Z,1.90
2018-06-17T19:09:54.011Z,1.90
2018-06-17T19:12:32.578Z,1.63
2018-06-17T19:15:12.121Z,1.53
2018-06-17T19:17:50.645Z,1.83
2018-06-17T19:20:23.765Z,2.20
2018-06-17T19:22:56.826Z,3.30
2018-06-17T19:25:29.916Z,3.87
2018-06-17T19:28:03.040Z,1.97
2018-06-17T19:30:36.146Z,1.97
2018-06-17T19:33:09.219Z,1.60
2018-06-17T19:35:42.299Z,1.73
2018-06-17T19:38:15.368Z,1.70
2018-06-17T19:40:48.514Z,1.70
2018-06-17T19:43:21.671Z,1.33
2018-06-17T19:45:55.227Z,1.50
2018-06-17T19:48:28.262Z,1.70
2018-06-17T19:51:06.803Z,2.67
2018-06-17T19:53:45.325Z,2.10
2018-06-17T19:56:24.053Z,1.70
2018-06-17T19:59:02.650Z,7.63
2018-06-17T20:01:35.699Z,3.23
2018-06-17T20:04:08.845Z,2.40
2018-06-17T20:06:41.918Z,2.57
2018-06-17T20:09:15.031Z,2.37
2018-06-17T20:11:48.163Z,2.00
2018-06-17T20:14:21.363Z,2.50
2018-06-17T20:16:54.433Z,2.40
2018-06-17T20:19:27.358Z,2.53
2018-06-17T20:22:00.577Z,2.80
2018-06-17T20:24:33.697Z,3.00
2018-06-17T20:27:06.778Z,2.60
2018-06-17T20:29:39.872Z,2.17
2018-06-17T20:32:18.332Z,3.00
2018-06-17T20:34:57.142Z,3.13
2018-06-17T20:37:35.588Z,3.37
2018-06-17T20:40:14.006Z,4.00
2018-06-17T20:42:52.799Z,3.57
2018-06-17T20:45:25.932Z,3.17
2018-06-17T20:47:59.160Z,3.03
2018-06-17T20:50:32.195Z,2.83
2018-06-17T20:53:05.117Z,2.60
2018-06-17T20:55:38.199Z,2.93
2018-06-17T20:58:11.315Z,2.67
2018-06-17T21:00:44.603Z,2.70
2018-06-17T21:03:17.891Z,2.60
2018-06-17T21:05:51.083Z,2.70
2018-06-17T21:08:23.990Z,2.30
2018-06-17T21:10:57.008Z,2.50
2018-06-17T21:13:30.072Z,2.40
2018-06-17T21:16:03.158Z,2.50
2018-06-17T21:18:41.620Z,2.67
2018-06-17T21:21:20.027Z,2.60
2018-06-17T21:23:58.614Z,2.60
2018-06-17T21:26:36.858Z,2.80
2018-06-17T21:29:09.975Z,2.60
2018-06-17T21:31:43.099Z,2.40
2018-06-17T21:34:16.357Z,2.30
2018-06-17T21:36:49.234Z,2.43
2018-06-17T21:39:22.360Z,2.40
2018-06-17T21:41:55.485Z,2.00
2018-06-17T21:44:28.559Z,2.20
2018-06-17T21:47:01.678Z,2.50
2018-06-17T21:49:34.800Z,2.13
2018-06-17T21:52:08.114Z,2.27
2018-06-17T21:54:41.263Z,2.50
2018-06-17T21:57:14.359Z,2.93
2018-06-17T21:59:47.502Z,2.57
2018-06-17T22:02:20.656Z,2.63
2018-06-17T22:04:53.987Z,2.37
2018-06-17T22:07:27.135Z,2.60
2018-06-17T22:10:05.696Z,2.70
2018-06-17T22:13:12.316Z,2.60
2018-06-17T22:17:58.878Z,2.60
2018-06-17T22:20:32.010Z,2.80
2018-06-17T22:23:05.128Z,2.73
2018-06-17T22:25:38.319Z,2.50
2018-06-17T22:28:11.507Z,2.93
2018-06-17T22:30:44.686Z,2.73
2018-06-17T22:33:17.759Z,2.80
2018-06-17T22:35:50.906Z,3.00
2018-06-17T22:38:23.816Z,3.20
2018-06-17T22:40:56.879Z,3.30
2018-06-17T22:43:29.943Z,2.63
2018-06-17T22:46:03.226Z,3.00
2018-06-17T22:48:36.410Z,2.90
2018-06-17T22:51:09.545Z,2.73
2018-06-17T22:53:53.939Z,2.60
2018-06-17T22:58:35.763Z,2.97
2018-06-17T23:01:14.522Z,2.97
2018-06-17T23:03:53.145Z,2.90
2018-06-17T23:06:32.009Z,2.90
2018-06-17T23:09:13.077Z,3.53
2018-06-17T23:11:46.183Z,2.60
2018-06-17T23:14:19.346Z,2.57
2018-06-17T23:16:52.450Z,2.83
2018-06-17T23:19:25.586Z,3.30
2018-06-17T23:21:58.669Z,3.10
2018-06-17T23:24:31.787Z,3.10
2018-06-17T23:27:04.910Z,3.20
2018-06-17T23:29:37.990Z,3.90
2018-06-17T23:32:11.111Z,3.90
2018-06-17T23:34:44.377Z,3.87
2018-06-17T23:37:17.617Z,3.70
2018-06-17T23:39:50.648Z,3.63
2018-06-17T23:42:24.344Z,3.57
2018-06-17T23:44:57.352Z,3.30
2018-06-17T23:47:35.814Z,3.63
2018-06-17T23:50:14.378Z,2.83
2018-06-17T23:52:52.789Z,3.70
2018-06-17T23:55:31.204Z,3.43
2018-06-17T23:58:04.346Z,3.50
